sensor_id;sensor_type;location;lat;lon;timestamp;pressure;altitude;pressure_sealevel;temperature;humidity
31092;BME280;67728;53.122;12.776;2024-02-26T00:00:28;99778.28;;;-1.80;81.45
31092;BME280;67728;53.122;12.776;2024-02-26T00:02:00;99791.56;;;-1.83;81.38
31092;BME280;67728;53.122;12.776;2024-02-26T00:03:32;99775.94;;;-1.86;81.35
31092;BME280;67728;53.122;12.776;2024-02-26T00:05:07;99781.13;;;-1.84;81.75
31092;BME280;67728;53.122;12.776;2024-02-26T00:06:38;99781.22;;;-1.86;81.98
31092;BME280;67728;53.122;12.776;2024-02-26T00:08:11;99780.34;;;-1.86;81.91
31092;BME280;67728;53.122;12.776;2024-02-26T00:09:43;99782.06;;;-1.85;81.86
31092;BME280;67728;53.122;12.776;2024-02-26T00:11:13;99786.38;;;-1.84;81.95
31092;BME280;67728;53.122;12.776;2024-02-26T00:12:45;99782.06;;;-1.85;81.61
31092;BME280;67728;53.122;12.776;2024-02-26T00:14:15;99785.47;;;-1.83;82.14
31092;BME280;67728;53.122;12.776;2024-02-26T00:15:47;99781.81;;;-1.81;82.14
31092;BME280;67728;53.122;12.776;2024-02-26T00:17:18;99778.28;;;-1.80;81.99
31092;BME280;67728;53.122;12.776;2024-02-26T00:18:51;99783.69;;;-1.83;81.45
31092;BME280;67728;53.122;12.776;2024-02-26T00:20:21;99787.38;;;-1.87;81.54
31092;BME280;67728;53.122;12.776;2024-02-26T00:21:53;99783.13;;;-1.89;81.79
31092;BME280;67728;53.122;12.776;2024-02-26T00:23:24;99788.47;;;-1.91;82.05
31092;BME280;67728;53.122;12.776;2024-02-26T00:24:56;99786.81;;;-1.93;82.22
31092;BME280;67728;53.122;12.776;2024-02-26T00:26:26;99780.81;;;-1.95;81.97
31092;BME280;67728;53.122;12.776;2024-02-26T00:27:58;99775.69;;;-1.98;82.23
31092;BME280;67728;53.122;12.776;2024-02-26T00:29:28;99780.94;;;-1.98;82.46
31092;BME280;67728;53.122;12.776;2024-02-26T00:31:00;99774.00;;;-1.99;82.32
31092;BME280;67728;53.122;12.776;2024-02-26T00:32:30;99774.84;;;-1.99;82.40
31092;BME280;67728;53.122;12.776;2024-02-26T00:34:04;99783.50;;;-1.97;82.57
31092;BME280;67728;53.122;12.776;2024-02-26T00:35:34;99771.16;;;-1.95;82.88
31092;BME280;67728;53.122;12.776;2024-02-26T00:37:06;99766.91;;;-1.97;82.24
31092;BME280;67728;53.122;12.776;2024-02-26T00:38:37;99774.78;;;-1.97;82.00
31092;BME280;67728;53.122;12.776;2024-02-26T00:40:10;99770.59;;;-2.01;81.67
31092;BME280;67728;53.122;12.776;2024-02-26T00:41:42;99772.50;;;-2.05;81.42
31092;BME280;67728;53.122;12.776;2024-02-26T00:43:12;99771.59;;;-2.04;81.79
31092;BME280;67728;53.122;12.776;2024-02-26T00:44:44;99768.03;;;-2.03;82.21
31092;BME280;67728;53.122;12.776;2024-02-26T00:46:15;99771.44;;;-2.01;81.87
31092;BME280;67728;53.122;12.776;2024-02-26T00:47:46;99774.94;;;-2.00;81.87
31092;BME280;67728;53.122;12.776;2024-02-26T00:49:20;99772.44;;;-2.03;81.61
31092;BME280;67728;53.122;12.776;2024-02-26T00:50:51;99774.31;;;-2.05;81.60
31092;BME280;67728;53.122;12.776;2024-02-26T00:52:22;99776.16;;;-2.08;81.30
31092;BME280;67728;53.122;12.776;2024-02-26T00:53:54;99776.16;;;-2.08;81.41
31092;BME280;67728;53.122;12.776;2024-02-26T00:55:25;99778.91;;;-2.11;80.92
31092;BME280;67728;53.122;12.776;2024-02-26T00:56:56;99793.09;;;-2.15;80.55
31092;BME280;67728;53.122;12.776;2024-02-26T00:58:27;99778.25;;;-2.16;81.19
31092;BME280;67728;53.122;12.776;2024-02-26T00:59:59;99778.34;;;-2.17;81.07
31092;BME280;67728;53.122;12.776;2024-02-26T01:01:30;99776.66;;;-2.18;81.19
31092;BME280;67728;53.122;12.776;2024-02-26T01:03:02;99788.00;;;-2.18;81.29
31092;BME280;67728;53.122;12.776;2024-02-26T01:04:35;99784.53;;;-2.18;81.15
31092;BME280;67728;53.122;12.776;2024-02-26T01:06:07;99788.22;;;-2.22;80.75
31092;BME280;67728;53.122;12.776;2024-02-26T01:07:38;99784.75;;;-2.23;80.93
31092;BME280;67728;53.122;12.776;2024-02-26T01:09:10;99771.63;;;-2.23;81.32
31092;BME280;67728;53.122;12.776;2024-02-26T01:10:40;99772.47;;;-2.22;81.76
31092;BME280;67728;53.122;12.776;2024-02-26T01:12:12;99774.94;;;-2.19;81.72
31092;BME280;67728;53.122;12.776;2024-02-26T01:13:43;99773.13;;;-2.17;81.75
31092;BME280;67728;53.122;12.776;2024-02-26T01:15:14;99775.63;;;-2.16;81.67
31092;BME280;67728;53.122;12.776;2024-02-26T01:16:45;99782.88;;;-2.21;81.08
31092;BME280;67728;53.122;12.776;2024-02-26T01:18:17;99769.91;;;-2.24;81.08
31092;BME280;67728;53.122;12.776;2024-02-26T01:19:49;99766.50;;;-2.26;81.46
31092;BME280;67728;53.122;12.776;2024-02-26T01:21:20;99769.13;;;-2.26;81.68
31092;BME280;67728;53.122;12.776;2024-02-26T01:22:51;99770.84;;;-2.25;81.71
31092;BME280;67728;53.122;12.776;2024-02-26T01:24:23;99766.50;;;-2.26;81.55
31092;BME280;67728;53.122;12.776;2024-02-26T01:25:53;99758.78;;;-2.29;81.73
31092;BME280;67728;53.122;12.776;2024-02-26T01:27:25;99758.78;;;-2.29;81.28
31092;BME280;67728;53.122;12.776;2024-02-26T01:28:57;99760.47;;;-2.28;81.63
31092;BME280;67728;53.122;12.776;2024-02-26T01:30:29;99755.31;;;-2.29;81.48
31092;BME280;67728;53.122;12.776;2024-02-26T01:32:00;99759.72;;;-2.30;81.48
31092;BME280;67728;53.122;12.776;2024-02-26T01:33:31;99766.72;;;-2.30;81.45
31092;BME280;67728;53.122;12.776;2024-02-26T01:35:04;99762.34;;;-2.30;81.86
31092;BME280;67728;53.122;12.776;2024-02-26T01:36:37;99759.78;;;-2.31;81.81
31092;BME280;67728;53.122;12.776;2024-02-26T01:38:08;99758.84;;;-2.30;81.99
31092;BME280;67728;53.122;12.776;2024-02-26T01:39:40;99759.00;;;-2.33;81.77
31092;BME280;67728;53.122;12.776;2024-02-26T01:41:13;99759.84;;;-2.33;82.02
31092;BME280;67728;53.122;12.776;2024-02-26T01:42:45;99765.09;;;-2.33;82.10
31092;BME280;67728;53.122;12.776;2024-02-26T01:44:17;99764.16;;;-2.32;82.28
31092;BME280;67728;53.122;12.776;2024-02-26T01:45:47;99768.56;;;-2.32;82.24
31092;BME280;67728;53.122;12.776;2024-02-26T01:47:19;99767.72;;;-2.33;82.14
31092;BME280;67728;53.122;12.776;2024-02-26T01:48:50;99758.16;;;-2.34;82.00
31092;BME280;67728;53.122;12.776;2024-02-26T01:50:23;99759.00;;;-2.33;82.14
31092;BME280;67728;53.122;12.776;2024-02-26T01:51:54;99758.84;;;-2.30;82.50
31092;BME280;67728;53.122;12.776;2024-02-26T01:53:26;99761.31;;;-2.27;82.35
31092;BME280;67728;53.122;12.776;2024-02-26T01:54:58;99761.31;;;-2.27;82.54
31092;BME280;67728;53.122;12.776;2024-02-26T01:56:29;99765.66;;;-2.26;82.29
31092;BME280;67728;53.122;12.776;2024-02-26T01:58:02;99760.47;;;-2.28;82.12
31092;BME280;67728;53.122;12.776;2024-02-26T01:59:33;99762.34;;;-2.30;81.74
31092;BME280;67728;53.122;12.776;2024-02-26T02:01:06;99763.25;;;-2.31;81.39
31092;BME280;67728;53.122;12.776;2024-02-26T02:02:37;99756.31;;;-2.32;81.69
31092;BME280;67728;53.122;12.776;2024-02-26T02:04:12;99758.94;;;-2.32;81.80
31092;BME280;67728;53.122;12.776;2024-02-26T02:05:44;99758.94;;;-2.32;81.77
31092;BME280;67728;53.122;12.776;2024-02-26T02:07:16;99762.63;;;-2.36;81.59
31092;BME280;67728;53.122;12.776;2024-02-26T02:08:47;99767.00;;;-2.36;81.96
31092;BME280;67728;53.122;12.776;2024-02-26T02:10:20;99766.97;;;-2.35;82.26
31092;BME280;67728;53.122;12.776;2024-02-26T02:11:53;99775.69;;;-2.34;82.33
31092;BME280;67728;53.122;12.776;2024-02-26T02:13:25;99769.56;;;-2.35;82.04
31092;BME280;67728;53.122;12.776;2024-02-26T02:14:55;99768.00;;;-2.39;81.91
31092;BME280;67728;53.122;12.776;2024-02-26T02:16:27;99766.44;;;-2.43;81.93
31092;BME280;67728;53.122;12.776;2024-02-26T02:17:57;99762.91;;;-2.42;82.00
31092;BME280;67728;53.122;12.776;2024-02-26T02:19:29;99762.06;;;-2.42;82.13
31092;BME280;67728;53.122;12.776;2024-02-26T02:21:01;99763.81;;;-2.43;82.33
31092;BME280;67728;53.122;12.776;2024-02-26T02:22:33;99763.81;;;-2.43;82.14
31092;BME280;67728;53.122;12.776;2024-02-26T02:24:04;99766.44;;;-2.43;82.45
31092;BME280;67728;53.122;12.776;2024-02-26T02:25:36;99775.16;;;-2.42;82.34
31092;BME280;67728;53.122;12.776;2024-02-26T02:27:06;99766.38;;;-2.41;82.25
31092;BME280;67728;53.122;12.776;2024-02-26T02:28:39;99774.31;;;-2.43;81.81
31092;BME280;67728;53.122;12.776;2024-02-26T02:30:11;99766.50;;;-2.44;82.07
31092;BME280;67728;53.122;12.776;2024-02-26T02:31:42;99763.13;;;-2.46;81.95
31092;BME280;67728;53.122;12.776;2024-02-26T02:33:13;99769.22;;;-2.46;82.40
31092;BME280;67728;53.122;12.776;2024-02-26T02:34:45;99761.41;;;-2.47;82.31
31092;BME280;67728;53.122;12.776;2024-02-26T02:36:18;99757.03;;;-2.47;81.98
31092;BME280;67728;53.122;12.776;2024-02-26T02:37:51;99763.19;;;-2.48;82.25
31092;BME280;67728;53.122;12.776;2024-02-26T02:39:22;99758.00;;;-2.50;82.01
31092;BME280;67728;53.122;12.776;2024-02-26T02:40:54;99758.84;;;-2.49;81.86
31092;BME280;67728;53.122;12.776;2024-02-26T02:42:24;99767.53;;;-2.47;82.21
31092;BME280;67728;53.122;12.776;2024-02-26T02:43:56;99770.13;;;-2.47;82.22
31092;BME280;67728;53.122;12.776;2024-02-26T02:45:27;99763.25;;;-2.50;81.95
31092;BME280;67728;53.122;12.776;2024-02-26T02:46:58;99759.00;;;-2.52;81.73
31092;BME280;67728;53.122;12.776;2024-02-26T02:48:29;99765.19;;;-2.53;82.07
31092;BME280;67728;53.122;12.776;2024-02-26T02:50:01;99774.75;;;-2.52;81.73
31092;BME280;67728;53.122;12.776;2024-02-26T02:51:33;99772.13;;;-2.52;81.94
31092;BME280;67728;53.122;12.776;2024-02-26T02:53:04;99769.50;;;-2.52;81.95
31092;BME280;67728;53.122;12.776;2024-02-26T02:54:35;99764.31;;;-2.54;81.77
31092;BME280;67728;53.122;12.776;2024-02-26T02:56:07;99763.47;;;-2.54;82.04
31092;BME280;67728;53.122;12.776;2024-02-26T02:57:37;99766.09;;;-2.54;81.80
31092;BME280;67728;53.122;12.776;2024-02-26T02:59:11;99766.94;;;-2.54;81.69
31092;BME280;67728;53.122;12.776;2024-02-26T03:00:42;99771.34;;;-2.54;81.63
31092;BME280;67728;53.122;12.776;2024-02-26T03:02:13;99770.47;;;-2.55;81.81
31092;BME280;67728;53.122;12.776;2024-02-26T03:03:44;99773.91;;;-2.53;81.71
31092;BME280;67728;53.122;12.776;2024-02-26T03:05:16;99773.03;;;-2.53;81.56
31092;BME280;67728;53.122;12.776;2024-02-26T03:06:48;99770.63;;;-2.58;80.97
31092;BME280;67728;53.122;12.776;2024-02-26T03:08:20;99760.28;;;-2.61;80.97
31092;BME280;67728;53.122;12.776;2024-02-26T03:09:50;99758.56;;;-2.62;81.17
31092;BME280;67728;53.122;12.776;2024-02-26T03:11:22;99769.22;;;-2.65;81.55
31092;BME280;67728;53.122;12.776;2024-02-26T03:12:53;99771.84;;;-2.65;81.54
31092;BME280;67728;53.122;12.776;2024-02-26T03:14:26;99766.59;;;-2.65;81.57
31092;BME280;67728;53.122;12.776;2024-02-26T03:15:57;99767.44;;;-2.64;81.90
31092;BME280;67728;53.122;12.776;2024-02-26T03:17:28;99762.25;;;-2.66;81.38
31092;BME280;67728;53.122;12.776;2024-02-26T03:18:59;99760.72;;;-2.70;81.26
31092;BME280;67728;53.122;12.776;2024-02-26T03:20:31;99768.63;;;-2.71;81.27
31092;BME280;67728;53.122;12.776;2024-02-26T03:22:03;99769.44;;;-2.69;81.45
31092;BME280;67728;53.122;12.776;2024-02-26T03:23:35;99769.38;;;-2.68;81.85
31092;BME280;67728;53.122;12.776;2024-02-26T03:25:07;99770.13;;;-2.66;81.88
31092;BME280;67728;53.122;12.776;2024-02-26T03:26:39;99770.97;;;-2.65;81.77
31092;BME280;67728;53.122;12.776;2024-02-26T03:28:10;99767.50;;;-2.66;81.71
31092;BME280;67728;53.122;12.776;2024-02-26T03:29:41;99778.00;;;-2.66;81.49
31092;BME280;67728;53.122;12.776;2024-02-26T03:31:12;99776.22;;;-2.65;81.58
31092;BME280;67728;53.122;12.776;2024-02-26T03:32:44;99767.38;;;-2.63;81.90
31092;BME280;67728;53.122;12.776;2024-02-26T03:34:14;99767.50;;;-2.66;81.52
31092;BME280;67728;53.122;12.776;2024-02-26T03:35:47;99774.50;;;-2.66;81.22
31092;BME280;67728;53.122;12.776;2024-02-26T03:37:19;99771.91;;;-2.66;81.62
31092;BME280;67728;53.122;12.776;2024-02-26T03:38:51;99773.66;;;-2.67;81.89
31092;BME280;67728;53.122;12.776;2024-02-26T03:40:23;99783.28;;;-2.67;82.32
31092;BME280;67728;53.122;12.776;2024-02-26T03:41:54;99784.09;;;-2.65;82.20
31092;BME280;67728;53.122;12.776;2024-02-26T03:43:26;99784.88;;;-2.63;81.91
31092;BME280;67728;53.122;12.776;2024-02-26T03:44:56;99783.97;;;-2.62;82.02
31092;BME280;67728;53.122;12.776;2024-02-26T03:46:28;99782.25;;;-2.63;81.87
31092;BME280;67728;53.122;12.776;2024-02-26T03:47:59;99791.03;;;-2.64;82.06
31092;BME280;67728;53.122;12.776;2024-02-26T03:49:30;99798.00;;;-2.63;81.87
31092;BME280;67728;53.122;12.776;2024-02-26T03:51:01;99797.13;;;-2.64;81.58
31092;BME280;67728;53.122;12.776;2024-02-26T03:52:34;99799.88;;;-2.67;81.24
31092;BME280;67728;53.122;12.776;2024-02-26T03:54:05;99801.66;;;-2.67;81.23
31092;BME280;67728;53.122;12.776;2024-02-26T03:55:37;99802.59;;;-2.68;81.11
31092;BME280;67728;53.122;12.776;2024-02-26T03:57:07;99807.84;;;-2.68;81.60
31092;BME280;67728;53.122;12.776;2024-02-26T03:58:39;99811.38;;;-2.69;81.18
31092;BME280;67728;53.122;12.776;2024-02-26T04:00:12;99804.47;;;-2.72;81.79
31092;BME280;67728;53.122;12.776;2024-02-26T04:01:45;99807.97;;;-2.71;81.58
31092;BME280;67728;53.122;12.776;2024-02-26T04:03:17;99805.50;;;-2.74;81.51
31092;BME280;67728;53.122;12.776;2024-02-26T04:04:47;99810.00;;;-2.78;81.53
31092;BME280;67728;53.122;12.776;2024-02-26T04:06:19;99803.78;;;-2.75;81.75
31092;BME280;67728;53.122;12.776;2024-02-26T04:07:52;99800.25;;;-2.74;81.66
31092;BME280;67728;53.122;12.776;2024-02-26T04:09:24;99801.22;;;-2.77;81.38
31092;BME280;67728;53.122;12.776;2024-02-26T04:10:55;99801.56;;;-2.84;81.79
31092;BME280;67728;53.122;12.776;2024-02-26T04:12:26;99807.75;;;-2.85;82.08
31092;BME280;67728;53.122;12.776;2024-02-26T04:13:57;99806.88;;;-2.86;82.36
31092;BME280;67728;53.122;12.776;2024-02-26T04:15:29;99811.91;;;-2.81;82.23
31092;BME280;67728;53.122;12.776;2024-02-26T04:16:59;99817.88;;;-2.78;82.31
31092;BME280;67728;53.122;12.776;2024-02-26T04:18:31;99809.16;;;-2.78;82.29
31092;BME280;67728;53.122;12.776;2024-02-26T04:20:02;99816.38;;;-2.83;81.42
31092;BME280;67728;53.122;12.776;2024-02-26T04:21:34;99819.19;;;-2.88;81.30
31092;BME280;67728;53.122;12.776;2024-02-26T04:23:07;99820.03;;;-2.87;81.62
31092;BME280;67728;53.122;12.776;2024-02-26T04:24:38;99820.75;;;-2.84;82.17
31092;BME280;67728;53.122;12.776;2024-02-26T04:26:10;99819.91;;;-2.84;81.69
31092;BME280;67728;53.122;12.776;2024-02-26T04:27:40;99820.75;;;-2.84;81.72
31092;BME280;67728;53.122;12.776;2024-02-26T04:29:12;99827.66;;;-2.81;82.05
31092;BME280;67728;53.122;12.776;2024-02-26T04:30:43;99819.63;;;-2.78;82.31
31092;BME280;67728;53.122;12.776;2024-02-26T04:32:14;99828.34;;;-2.78;82.22
31092;BME280;67728;53.122;12.776;2024-02-26T04:33:45;99830.97;;;-2.78;81.89
31092;BME280;67728;53.122;12.776;2024-02-26T04:35:17;99839.75;;;-2.79;81.76
31092;BME280;67728;53.122;12.776;2024-02-26T04:36:47;99845.16;;;-2.82;81.04
31092;BME280;67728;53.122;12.776;2024-02-26T04:38:20;99844.44;;;-2.85;81.30
31092;BME280;67728;53.122;12.776;2024-02-26T04:39:52;99844.34;;;-2.84;81.51
31092;BME280;67728;53.122;12.776;2024-02-26T04:41:24;99836.47;;;-2.84;81.59
31092;BME280;67728;53.122;12.776;2024-02-26T04:42:55;99836.63;;;-2.87;81.96
31092;BME280;67728;53.122;12.776;2024-02-26T04:44:27;99837.53;;;-2.88;82.30
31092;BME280;67728;53.122;12.776;2024-02-26T04:45:58;99842.00;;;-2.90;82.35
31092;BME280;67728;53.122;12.776;2024-02-26T04:47:29;99847.13;;;-2.87;82.89
31092;BME280;67728;53.122;12.776;2024-02-26T04:49:00;99845.34;;;-2.86;83.38
31092;BME280;67728;53.122;12.776;2024-02-26T04:50:32;99848.69;;;-2.83;83.73
31092;BME280;67728;53.122;12.776;2024-02-26T04:52:03;99843.31;;;-2.80;83.48
31092;BME280;67728;53.122;12.776;2024-02-26T04:53:36;99846.00;;;-2.81;82.81
31092;BME280;67728;53.122;12.776;2024-02-26T04:55:07;99847.81;;;-2.83;82.31
31092;BME280;67728;53.122;12.776;2024-02-26T04:56:39;99846.91;;;-2.82;82.50
31092;BME280;67728;53.122;12.776;2024-02-26T04:58:10;99850.38;;;-2.82;82.72
31092;BME280;67728;53.122;12.776;2024-02-26T04:59:42;99859.03;;;-2.80;82.77
31092;BME280;67728;53.122;12.776;2024-02-26T05:01:12;99852.94;;;-2.80;82.38
31092;BME280;67728;53.122;12.776;2024-02-26T05:02:46;99854.66;;;-2.79;82.55
31092;BME280;67728;53.122;12.776;2024-02-26T05:04:16;99860.72;;;-2.79;82.16
31092;BME280;67728;53.122;12.776;2024-02-26T05:05:48;99865.25;;;-2.82;82.19
31092;BME280;67728;53.122;12.776;2024-02-26T05:07:19;99863.44;;;-2.80;81.97
31092;BME280;67728;53.122;12.776;2024-02-26T05:08:52;99860.94;;;-2.83;81.74
31092;BME280;67728;53.122;12.776;2024-02-26T05:10:22;99860.16;;;-2.85;81.56
31092;BME280;67728;53.122;12.776;2024-02-26T05:11:54;99862.13;;;-2.90;81.55
31092;BME280;67728;53.122;12.776;2024-02-26T05:13:24;99862.19;;;-2.92;81.11
31092;BME280;67728;53.122;12.776;2024-02-26T05:14:56;99859.56;;;-2.92;81.59
31092;BME280;67728;53.122;12.776;2024-02-26T05:16:28;99865.66;;;-2.92;81.82
31092;BME280;67728;53.122;12.776;2024-02-26T05:18:00;99864.66;;;-2.89;81.99
31092;BME280;67728;53.122;12.776;2024-02-26T05:19:32;99871.56;;;-2.86;82.25
31092;BME280;67728;53.122;12.776;2024-02-26T05:21:03;99870.56;;;-2.84;82.11
31092;BME280;67728;53.122;12.776;2024-02-26T05:22:35;99874.03;;;-2.83;81.85
31092;BME280;67728;53.122;12.776;2024-02-26T05:24:07;99875.75;;;-2.82;81.82
31092;BME280;67728;53.122;12.776;2024-02-26T05:25:39;99876.59;;;-2.82;81.64
31092;BME280;67728;53.122;12.776;2024-02-26T05:27:09;99877.50;;;-2.83;81.13
31092;BME280;67728;53.122;12.776;2024-02-26T05:28:42;99884.53;;;-2.83;81.47
31092;BME280;67728;53.122;12.776;2024-02-26T05:30:13;99878.44;;;-2.84;81.29
31092;BME280;67728;53.122;12.776;2024-02-26T05:31:45;99886.38;;;-2.85;81.62
31092;BME280;67728;53.122;12.776;2024-02-26T05:33:16;99881.13;;;-2.85;82.13
31092;BME280;67728;53.122;12.776;2024-02-26T05:34:47;99886.19;;;-2.81;82.09
31092;BME280;67728;53.122;12.776;2024-02-26T05:36:19;99888.75;;;-2.79;82.24
31092;BME280;67728;53.122;12.776;2024-02-26T05:37:52;99887.75;;;-2.77;82.24
31092;BME280;67728;53.122;12.776;2024-02-26T05:39:25;99894.53;;;-2.73;82.46
31092;BME280;67728;53.122;12.776;2024-02-26T05:40:57;99895.41;;;-2.72;82.57
31092;BME280;67728;53.122;12.776;2024-02-26T05:42:29;99894.38;;;-2.68;82.72
31092;BME280;67728;53.122;12.776;2024-02-26T05:44:00;99893.44;;;-2.67;82.58
31092;BME280;67728;53.122;12.776;2024-02-26T05:45:31;99894.28;;;-2.67;82.48
31092;BME280;67728;53.122;12.776;2024-02-26T05:47:03;99897.00;;;-2.68;82.86
31092;BME280;67728;53.122;12.776;2024-02-26T05:48:34;99899.72;;;-2.71;83.16
31092;BME280;67728;53.122;12.776;2024-02-26T05:50:07;99899.66;;;-2.70;82.79
31092;BME280;67728;53.122;12.776;2024-02-26T05:51:37;99900.63;;;-2.72;82.83
31092;BME280;67728;53.122;12.776;2024-02-26T05:53:09;99906.78;;;-2.73;82.87
31092;BME280;67728;53.122;12.776;2024-02-26T05:54:41;99909.38;;;-2.72;82.81
31092;BME280;67728;53.122;12.776;2024-02-26T05:56:13;99911.06;;;-2.71;82.72
31092;BME280;67728;53.122;12.776;2024-02-26T05:57:44;99908.44;;;-2.71;82.87
31092;BME280;67728;53.122;12.776;2024-02-26T05:59:15;99912.78;;;-2.70;82.88
31092;BME280;67728;53.122;12.776;2024-02-26T06:00:46;99917.03;;;-2.67;82.65
31092;BME280;67728;53.122;12.776;2024-02-26T06:02:18;99910.00;;;-2.67;82.91
31092;BME280;67728;53.122;12.776;2024-02-26T06:03:48;99916.09;;;-2.66;83.10
31092;BME280;67728;53.122;12.776;2024-02-26T06:05:20;99933.56;;;-2.65;83.09
31092;BME280;67728;53.122;12.776;2024-02-26T06:06:51;99918.63;;;-2.63;83.32
31092;BME280;67728;53.122;12.776;2024-02-26T06:08:22;99919.31;;;-2.60;83.58
31092;BME280;67728;53.122;12.776;2024-02-26T06:09:54;99915.66;;;-2.56;83.14
31092;BME280;67728;53.122;12.776;2024-02-26T06:11:26;99922.59;;;-2.55;83.14
31092;BME280;67728;53.122;12.776;2024-02-26T06:12:58;99914.66;;;-2.53;82.92
31092;BME280;67728;53.122;12.776;2024-02-26T06:14:29;99919.00;;;-2.52;82.90
31092;BME280;67728;53.122;12.776;2024-02-26T06:16:00;99925.00;;;-2.50;82.84
31092;BME280;67728;53.122;12.776;2024-02-26T06:17:32;99922.38;;;-2.50;82.58
31092;BME280;67728;53.122;12.776;2024-02-26T06:19:03;99924.16;;;-2.51;82.17
31092;BME280;67728;53.122;12.776;2024-02-26T06:20:35;99926.88;;;-2.52;82.26
31092;BME280;67728;53.122;12.776;2024-02-26T06:22:06;99924.25;;;-2.52;82.19
31092;BME280;67728;53.122;12.776;2024-02-26T06:23:38;99932.97;;;-2.52;81.99
31092;BME280;67728;53.122;12.776;2024-02-26T06:25:10;99934.66;;;-2.51;82.06
31092;BME280;67728;53.122;12.776;2024-02-26T06:26:41;99935.50;;;-2.50;82.23
31092;BME280;67728;53.122;12.776;2024-02-26T06:28:12;99937.09;;;-2.46;82.41
31092;BME280;67728;53.122;12.776;2024-02-26T06:29:44;99936.09;;;-2.43;82.30
31092;BME280;67728;53.122;12.776;2024-02-26T06:31:15;99934.31;;;-2.43;82.17
31092;BME280;67728;53.122;12.776;2024-02-26T06:32:47;99937.88;;;-2.44;82.00
31092;BME280;67728;53.122;12.776;2024-02-26T06:34:18;99937.81;;;-2.42;82.45
31092;BME280;67728;53.122;12.776;2024-02-26T06:35:50;99940.38;;;-2.41;82.24
31092;BME280;67728;53.122;12.776;2024-02-26T06:37:20;99939.38;;;-2.38;82.29
31092;BME280;67728;53.122;12.776;2024-02-26T06:38:52;99939.31;;;-2.37;82.43
31092;BME280;67728;53.122;12.776;2024-02-26T06:40:25;99935.81;;;-2.37;82.55
31092;BME280;67728;53.122;12.776;2024-02-26T06:41:57;99946.91;;;-2.31;82.23
31092;BME280;67728;53.122;12.776;2024-02-26T06:43:30;99942.38;;;-2.27;82.54
31092;BME280;67728;53.122;12.776;2024-02-26T06:45:04;99945.00;;;-2.27;82.59
31092;BME280;67728;53.122;12.776;2024-02-26T06:46:34;99941.50;;;-2.28;82.52
31092;BME280;67728;53.122;12.776;2024-02-26T06:48:07;99942.38;;;-2.27;82.71
31092;BME280;67728;53.122;12.776;2024-02-26T06:49:38;99951.88;;;-2.25;82.63
31092;BME280;67728;53.122;12.776;2024-02-26T06:51:09;99947.44;;;-2.23;82.95
31092;BME280;67728;53.122;12.776;2024-02-26T06:52:44;99940.41;;;-2.22;82.73
31092;BME280;67728;53.122;12.776;2024-02-26T06:54:15;99951.69;;;-2.20;82.97
31092;BME280;67728;53.122;12.776;2024-02-26T06:55:47;99953.19;;;-2.15;83.00
31092;BME280;67728;53.122;12.776;2024-02-26T06:57:20;99952.91;;;-2.09;82.88
31092;BME280;67728;53.122;12.776;2024-02-26T06:58:51;99958.81;;;-2.03;83.02
31092;BME280;67728;53.122;12.776;2024-02-26T07:00:23;99962.00;;;-1.97;82.68
31092;BME280;67728;53.122;12.776;2024-02-26T07:01:54;99961.88;;;-1.94;82.63
31092;BME280;67728;53.122;12.776;2024-02-26T07:03:25;99955.56;;;-1.90;82.58
31092;BME280;67728;53.122;12.776;2024-02-26T07:04:57;99962.31;;;-1.84;82.53
31092;BME280;67728;53.122;12.776;2024-02-26T07:06:29;99959.53;;;-1.81;82.33
31092;BME280;67728;53.122;12.776;2024-02-26T07:08:00;99954.09;;;-1.77;82.45
31092;BME280;67728;53.122;12.776;2024-02-26T07:09:31;99953.09;;;-1.74;82.54
31092;BME280;67728;53.122;12.776;2024-02-26T07:11:07;99959.88;;;-1.70;82.21
31092;BME280;67728;53.122;12.776;2024-02-26T07:12:38;99959.88;;;-1.70;82.60
31092;BME280;67728;53.122;12.776;2024-02-26T07:14:12;99965.94;;;-1.68;82.85
31092;BME280;67728;53.122;12.776;2024-02-26T07:15:42;99964.94;;;-1.65;82.72
31092;BME280;67728;53.122;12.776;2024-02-26T07:17:14;99958.69;;;-1.63;83.00
31092;BME280;67728;53.122;12.776;2024-02-26T07:18:46;99971.81;;;-1.63;82.88
31092;BME280;67728;53.122;12.776;2024-02-26T07:20:18;99963.03;;;-1.62;83.07
31092;BME280;67728;53.122;12.776;2024-02-26T07:21:48;99970.84;;;-1.60;83.10
31092;BME280;67728;53.122;12.776;2024-02-26T07:23:20;99972.53;;;-1.59;83.08
31092;BME280;67728;53.122;12.776;2024-02-26T07:24:51;99970.69;;;-1.57;83.42
31092;BME280;67728;53.122;12.776;2024-02-26T07:26:24;99976.78;;;-1.57;83.25
31092;BME280;67728;53.122;12.776;2024-02-26T07:27:56;99977.50;;;-1.53;83.39
31092;BME280;67728;53.122;12.776;2024-02-26T07:29:27;99974.81;;;-1.52;83.40
31092;BME280;67728;53.122;12.776;2024-02-26T07:30:58;99984.31;;;-1.49;83.45
31092;BME280;67728;53.122;12.776;2024-02-26T07:32:30;99976.34;;;-1.48;83.28
31092;BME280;67728;53.122;12.776;2024-02-26T07:34:00;99976.28;;;-1.46;83.30
31092;BME280;67728;53.122;12.776;2024-02-26T07:35:32;99979.66;;;-1.43;83.10
31092;BME280;67728;53.122;12.776;2024-02-26T07:37:03;99980.41;;;-1.41;83.03
31092;BME280;67728;53.122;12.776;2024-02-26T07:38:37;99977.72;;;-1.39;83.20
31092;BME280;67728;53.122;12.776;2024-02-26T07:40:08;99988.84;;;-1.34;83.17
31092;BME280;67728;53.122;12.776;2024-02-26T07:41:41;99985.25;;;-1.32;83.61
31092;BME280;67728;53.122;12.776;2024-02-26T07:43:16;99989.34;;;-1.26;83.39
31092;BME280;67728;53.122;12.776;2024-02-26T07:44:48;99982.16;;;-1.22;83.53
31092;BME280;67728;53.122;12.776;2024-02-26T07:46:19;99984.56;;;-1.18;83.65
31092;BME280;67728;53.122;12.776;2024-02-26T07:47:51;99986.13;;;-1.14;83.64
31092;BME280;67728;53.122;12.776;2024-02-26T07:49:22;99990.38;;;-1.11;83.62
31092;BME280;67728;53.122;12.776;2024-02-26T07:50:53;99993.63;;;-1.06;83.85
31092;BME280;67728;53.122;12.776;2024-02-26T07:52:24;99991.63;;;-1.01;83.90
31092;BME280;67728;53.122;12.776;2024-02-26T07:53:56;99995.84;;;-0.97;84.12
31092;BME280;67728;53.122;12.776;2024-02-26T07:55:27;99988.66;;;-0.94;83.67
31092;BME280;67728;53.122;12.776;2024-02-26T07:57:00;99993.59;;;-0.88;83.61
31092;BME280;67728;53.122;12.776;2024-02-26T07:58:32;99988.91;;;-0.81;83.89